Time;durP1;ratioP1;P1;durP2;ratioP2;P2;SDS_P1;SDS_P2;PMS_P1;PMS_P2;Temp;Humidity;BMP_temperature;BMP_pressure;BME280_temperature;BME280_humidity;BME280_pressure;Samples;Min_cycle;Max_cycle;Signal;HPM_P1;HPM_P2
2023/08/12 00:00:08;;;;;;;13.07;10.60;;;;;;;20.97;100.00;101404.44;6173003;23;20024;-68
2023/08/12 00:02:35;;;;;;;14.02;11.77;;;;;;;20.21;100.00;101300.56;6171557;23;20037;-69
2023/08/12 00:05:01;;;;;;;16.33;10.48;;;;;;;20.94;100.00;101394.88;6200619;23;20091;-69
2023/08/12 00:07:28;;;;;;;13.85;11.15;;;;;;;20.61;100.00;101343.41;6191275;23;20005;-69
2023/08/12 00:09:55;;;;;;;11.50;10.30;;;;;;;21.02;100.00;101408.41;6196169;23;20034;-69
2023/08/12 00:12:22;;;;;;;11.63;9.77;;;;;;;21.00;100.00;101406.84;6162311;23;20011;-69
2023/08/12 00:14:49;;;;;;;15.43;10.93;;;;;;;20.98;100.00;101406.97;6197079;23;20038;-69
2023/08/12 00:17:15;;;;;;;12.48;10.07;;;;;;;20.95;100.00;101396.56;6171589;23;20036;-69
2023/08/12 00:19:42;;;;;;;13.68;11.60;;;;;;;20.96;100.00;101392.06;6200863;23;20038;-69
2023/08/12 00:22:08;;;;;;;15.48;10.85;;;;;;;20.49;100.00;101325.75;6195199;23;20719;-69
2023/08/12 00:24:35;;;;;;;14.20;11.75;;;;;;;20.95;100.00;101407.25;6195301;23;20083;-69
2023/08/12 00:27:06;;;;;;;13.32;11.73;;;;;;;20.54;100.00;101350.19;6196809;23;20016;-69
2023/08/12 00:29:35;;;;;;;15.82;12.20;;;;;;;20.89;100.00;101413.94;6114953;23;20404;-70
2023/08/12 00:32:03;;;;;;;12.98;10.65;;;;;;;20.64;100.00;101358.31;6192124;23;20094;-69
2023/08/12 00:34:30;;;;;;;16.50;10.77;;;;;;;20.15;100.00;101285.94;6162498;23;20094;-69
2023/08/12 00:36:56;;;;;;;12.80;10.88;;;;;;;20.97;100.00;101404.44;6175980;23;20020;-69
2023/08/12 00:39:23;;;;;;;11.68;10.45;;;;;;;20.74;100.00;101363.72;6196700;23;20028;-69
2023/08/12 00:41:49;;;;;;;16.02;11.45;;;;;;;20.83;100.00;101382.47;6201028;23;20033;-69
2023/08/12 00:44:16;;;;;;;12.45;10.70;;;;;;;20.60;100.00;101360.38;6195517;23;20024;-70
2023/08/12 00:46:43;;;;;;;16.45;11.32;;;;;;;20.54;100.00;101374.19;6193803;23;20104;-69
2023/08/12 00:49:11;;;;;;;12.05;10.68;;;;;;;20.51;100.00;101379.81;6148885;23;20012;-70
2023/08/12 00:51:41;;;;;;;13.88;11.07;;;;;;;20.58;100.00;101388.97;6198417;23;20025;-70
2023/08/12 00:54:12;;;;;;;14.15;11.77;;;;;;;20.55;100.00;101383.91;6167630;23;20090;-71
2023/08/12 00:56:39;;;;;;;12.23;10.60;;;;;;;20.19;100.00;101346.00;6194857;23;20520;-69
2023/08/12 00:59:08;;;;;;;13.27;11.05;;;;;;;20.42;100.00;101369.88;6186841;23;20028;-69
2023/08/12 01:01:38;;;;;;;14.00;10.73;;;;;;;20.35;100.00;101374.03;6170841;23;20044;-69
2023/08/12 01:04:04;;;;;;;12.85;10.02;;;;;;;20.45;100.00;101372.31;6200505;23;20493;-68
2023/08/12 01:06:33;;;;;;;13.90;11.10;;;;;;;20.48;100.00;101372.03;6173270;23;20045;-69
2023/08/12 01:09:01;;;;;;;11.65;10.45;;;;;;;20.57;100.00;101371.28;6172766;23;20106;-72
2023/08/12 01:11:39;;;;;;;13.73;10.73;;;;;;;20.55;100.00;101372.38;6169403;23;20024;-69
2023/08/12 01:14:42;;;;;;;13.25;10.38;;;;;;;20.63;100.00;101375.28;6197628;23;20016;-69
2023/08/12 01:17:11;;;;;;;16.10;9.75;;;;;;;20.44;100.00;101333.28;6173239;23;20016;-69
2023/08/12 01:19:40;;;;;;;11.60;9.93;;;;;;;20.19;100.00;101291.84;6205411;23;20028;-68
2023/08/12 01:22:09;;;;;;;12.23;10.18;;;;;;;20.68;100.00;101376.56;6205147;23;20043;-68
2023/08/12 01:24:41;;;;;;;12.18;10.68;;;;;;;20.46;100.00;101318.00;6201429;23;20132;-68
2023/08/12 01:27:09;;;;;;;12.43;11.13;;;;;;;20.55;100.00;101330.56;6169213;23;20012;-68
2023/08/12 01:29:41;;;;;;;12.93;10.50;;;;;;;20.72;100.00;101338.00;6179866;23;20409;-69
2023/08/12 01:32:37;;;;;;;10.23;9.23;;;;;;;20.32;100.00;101263.19;6176367;23;20291;-68
2023/08/12 01:35:10;;;;;;;10.98;9.68;;;;;;;20.66;100.00;101333.19;6171761;23;20016;-69
2023/08/12 01:37:39;;;;;;;14.07;10.13;;;;;;;20.20;100.00;101262.38;6181733;23;20035;-70
2023/08/12 01:40:08;;;;;;;11.20;10.02;;;;;;;20.53;100.00;101332.53;6203530;23;20027;-68
2023/08/12 01:42:36;;;;;;;12.48;10.18;;;;;;;20.48;100.00;101326.72;6170549;23;20028;-69
2023/08/12 01:45:03;;;;;;;10.40;9.40;;;;;;;20.12;100.00;101275.50;6193833;23;20024;-68
2023/08/12 01:47:30;;;;;;;10.20;9.20;;;;;;;20.22;100.00;101297.75;6203723;23;20015;-69
2023/08/12 01:49:56;;;;;;;10.80;9.02;;;;;;;20.53;100.00;101325.34;6201833;23;20028;-69
2023/08/12 01:52:23;;;;;;;9.85;8.85;;;;;;;20.09;100.00;101271.28;6201796;23;20001;-70
2023/08/12 01:54:49;;;;;;;16.13;10.18;;;;;;;20.48;100.00;101330.22;6201380;23;20126;-69
2023/08/12 01:57:16;;;;;;;11.35;9.70;;;;;;;20.33;100.00;101318.19;6176147;23;20079;-69
2023/08/12 01:59:46;;;;;;;10.18;8.93;;;;;;;20.12;100.00;101270.19;6185382;23;20028;-70
2023/08/12 02:02:12;;;;;;;10.52;8.57;;;;;;;20.34;100.00;101330.53;6197738;23;20412;-70
2023/08/12 02:04:40;;;;;;;9.98;8.95;;;;;;;20.18;100.00;101312.31;6201712;23;20092;-70
2023/08/12 02:07:06;;;;;;;10.90;9.80;;;;;;;20.39;100.00;101341.69;6197822;23;20043;-68
2023/08/12 02:09:33;;;;;;;10.23;8.90;;;;;;;20.41;100.00;101339.72;6171460;23;20024;-68
2023/08/12 02:11:59;;;;;;;10.32;9.32;;;;;;;20.44;100.00;101339.44;6199908;23;20012;-68
2023/08/12 02:14:26;;;;;;;9.35;8.45;;;;;;;20.33;100.00;101324.38;6199607;23;20099;-68
2023/08/12 02:16:52;;;;;;;9.60;8.75;;;;;;;20.30;100.00;101331.78;6202102;23;20400;-68
2023/08/12 02:19:19;;;;;;;10.93;9.82;;;;;;;20.30;100.00;101334.44;6202894;23;20019;-69
2023/08/12 02:21:45;;;;;;;9.65;8.82;;;;;;;20.27;100.00;101340.88;6207132;23;20028;-70
2023/08/12 02:24:12;;;;;;;10.38;9.32;;;;;;;20.23;100.00;101315.44;6171331;23;20881;-69
2023/08/12 02:26:38;;;;;;;12.95;9.73;;;;;;;20.16;100.00;101300.94;6179022;23;20024;-70
2023/08/12 02:29:05;;;;;;;9.68;8.77;;;;;;;20.02;100.00;101280.75;6197293;23;20028;-68
2023/08/12 02:31:31;;;;;;;9.95;9.00;;;;;;;20.32;100.00;101335.16;6173736;23;20029;-70
2023/08/12 02:33:58;;;;;;;9.75;8.75;;;;;;;20.12;100.00;101291.50;6202922;23;20464;-69
2023/08/12 02:36:25;;;;;;;11.07;9.45;;;;;;;19.93;100.00;101258.41;6175598;23;20036;-68
2023/08/12 02:38:52;;;;;;;12.70;9.98;;;;;;;20.33;100.00;101339.53;6177135;23;20831;-68
2023/08/12 02:41:18;;;;;;;12.40;9.50;;;;;;;20.40;100.00;101334.50;6198822;23;20024;-69
2023/08/12 02:43:45;;;;;;;14.50;10.13;;;;;;;20.42;100.00;101337.91;6168681;23;20091;-69
2023/08/12 02:46:12;;;;;;;10.75;9.68;;;;;;;20.39;100.00;101340.84;6176946;23;20617;-68
2023/08/12 02:48:39;;;;;;;15.07;9.82;;;;;;;20.02;100.00;101271.94;6201123;23;20060;-68
2023/08/12 02:51:06;;;;;;;12.95;10.75;;;;;;;20.41;100.00;101336.22;6203801;23;20094;-69
2023/08/12 02:53:36;;;;;;;14.70;10.50;;;;;;;20.43;100.00;101326.28;6171707;23;20438;-69
2023/08/12 02:56:06;;;;;;;12.32;10.35;;;;;;;20.42;100.00;101328.06;6153480;23;20522;-69
2023/08/12 02:58:41;;;;;;;12.73;10.55;;;;;;;20.29;100.00;101306.09;6176579;23;20024;-68
2023/08/12 03:01:11;;;;;;;13.82;10.32;;;;;;;20.40;100.00;101318.53;6164273;23;20111;-68
2023/08/12 03:03:42;;;;;;;16.50;11.80;;;;;;;19.97;100.00;101251.00;6160968;23;20008;-69
2023/08/12 03:06:19;;;;;;;14.32;11.88;;;;;;;20.40;100.00;101315.84;6176100;23;20643;-68
2023/08/12 03:08:46;;;;;;;15.88;11.50;;;;;;;20.38;100.00;101307.97;6203997;23;21053;-69
2023/08/12 03:11:12;;;;;;;18.30;10.82;;;;;;;20.08;100.00;101258.09;6204041;23;20095;-69
2023/08/12 03:13:44;;;;;;;15.65;11.10;;;;;;;20.27;100.00;101300.88;6199604;23;20090;-68
2023/08/12 03:16:24;;;;;;;13.30;10.45;;;;;;;20.11;100.00;101272.00;6144996;23;20167;-69
2023/08/12 03:18:50;;;;;;;15.82;11.30;;;;;;;19.91;100.00;101263.00;6148783;23;20517;-69
2023/08/12 03:21:19;;;;;;;14.98;11.77;;;;;;;19.70;100.00;101238.97;6179351;23;20069;-69
2023/08/12 03:23:47;;;;;;;19.13;11.73;;;;;;;20.10;100.00;101302.28;6169997;23;20360;-69
2023/08/12 03:26:14;;;;;;;16.65;11.90;;;;;;;20.12;100.00;101310.16;6178123;23;20016;-68
2023/08/12 03:28:47;;;;;;;14.68;12.00;;;;;;;20.15;100.00;101312.59;6200754;23;20020;-69
2023/08/12 03:31:14;;;;;;;17.80;12.38;;;;;;;19.77;100.00;101250.00;6204374;23;20030;-70
2023/08/12 03:33:41;;;;;;;16.45;12.10;;;;;;;20.19;100.00;101307.84;6197452;23;20399;-69
2023/08/12 03:36:08;;;;;;;15.82;11.88;;;;;;;19.16;100.00;101135.19;6195650;23;20088;-69
2023/08/12 03:38:36;;;;;;;23.90;12.95;;;;;;;20.18;100.00;101304.31;6139676;23;20385;-69
2023/08/12 03:41:06;;;;;;;18.48;12.60;;;;;;;20.18;100.00;101292.81;6193169;23;20431;-68
2023/08/12 03:43:33;;;;;;;16.40;12.10;;;;;;;20.16;100.00;101284.09;6170172;22;21178;-70
2023/08/12 03:46:00;;;;;;;14.00;11.52;;;;;;;20.15;100.00;101277.09;6199868;23;20062;-69
2023/08/12 03:48:26;;;;;;;19.02;11.65;;;;;;;20.09;100.00;101257.13;6180798;23;20083;-68
2023/08/12 03:50:53;;;;;;;14.65;12.32;;;;;;;20.08;100.00;101255.44;6201191;23;20032;-69
2023/08/12 03:53:20;;;;;;;17.38;12.35;;;;;;;20.04;100.00;101248.66;6171756;23;20173;-68
2023/08/12 03:55:49;;;;;;;25.27;13.25;;;;;;;20.01;100.00;101246.28;6203866;23;21488;-68
2023/08/12 03:58:16;;;;;;;19.25;12.75;;;;;;;19.68;100.00;101200.94;6169885;23;20052;-68
2023/08/12 04:00:43;;;;;;;16.33;12.02;;;;;;;19.60;100.00;101194.56;6170107;23;20024;-68
2023/08/12 04:03:13;;;;;;;19.50;12.95;;;;;;;19.85;100.00;101257.34;6173148;23;20046;-68
2023/08/12 04:05:51;;;;;;;17.33;11.15;;;;;;;19.48;100.00;101210.59;6202349;23;20024;-69
2023/08/12 04:08:23;;;;;;;15.25;11.30;;;;;;;19.80;100.00;101259.53;6170477;23;20004;-69
2023/08/12 04:10:51;;;;;;;14.75;12.07;;;;;;;19.71;100.00;101255.81;6181909;23;20399;-69
2023/08/12 04:13:17;;;;;;;16.05;13.00;;;;;;;19.76;100.00;101269.59;6172255;23;20459;-69
2023/08/12 04:15:49;;;;;;;15.32;12.38;;;;;;;19.75;100.00;101273.25;6171254;23;20097;-69
2023/08/12 04:18:16;;;;;;;18.08;12.57;;;;;;;19.76;100.00;101280.25;6196966;23;20083;-69
2023/08/12 04:20:51;;;;;;;17.75;12.52;;;;;;;19.77;100.00;101276.63;6148062;23;20107;-69
2023/08/12 04:23:21;;;;;;;17.13;12.23;;;;;;;19.82;100.00;101284.22;6169792;23;20015;-69
2023/08/12 04:25:49;;;;;;;17.45;12.73;;;;;;;19.82;100.00;101292.22;6172276;23;20077;-69
2023/08/12 04:28:15;;;;;;;22.15;13.20;;;;;;;19.81;100.00;101270.06;6182511;23;20522;-69
2023/08/12 04:30:43;;;;;;;20.25;13.25;;;;;;;19.90;100.00;101271.97;6198893;23;20091;-69
2023/08/12 04:33:12;;;;;;;16.88;11.70;;;;;;;19.82;100.00;101246.94;6165982;23;20036;-69
2023/08/12 04:35:40;;;;;;;15.60;11.70;;;;;;;19.96;100.00;101264.44;6171933;23;20027;-70
2023/08/12 04:38:06;;;;;;;22.60;11.52;;;;;;;19.99;100.00;101259.72;6195531;23;20091;-70
2023/08/12 04:40:33;;;;;;;18.38;12.38;;;;;;;20.04;100.00;101254.00;6199667;23;20155;-69
2023/08/12 04:43:00;;;;;;;12.75;10.80;;;;;;;20.09;100.00;101247.31;6195464;23;20028;-69
2023/08/12 04:45:27;;;;;;;15.80;11.07;;;;;;;20.09;100.00;101236.66;6169106;23;20025;-69
2023/08/12 04:47:53;;;;;;;12.10;10.13;;;;;;;20.15;100.00;101237.13;6170934;23;20063;-69
2023/08/12 04:50:20;;;;;;;14.15;10.88;;;;;;;19.82;100.00;101175.03;6194967;23;20502;-69
2023/08/12 04:52:46;;;;;;;13.85;10.68;;;;;;;20.26;100.00;101229.03;6203445;23;20044;-69
2023/08/12 04:55:13;;;;;;;13.52;9.90;;;;;;;20.35;100.00;101227.41;6203684;23;20046;-70
2023/08/12 04:57:39;;;;;;;13.63;10.45;;;;;;;20.51;100.00;101225.16;6174326;23;20020;-69
2023/08/12 05:00:09;;;;;;;11.95;10.32;;;;;;;20.45;100.00;101185.69;6198076;23;20579;-70
2023/08/12 05:02:36;;;;;;;14.45;10.95;;;;;;;20.29;100.00;101133.69;6201506;23;20541;-69
2023/08/12 05:05:05;;;;;;;13.75;11.68;;;;;;;20.60;100.00;101160.38;6203686;23;20065;-69
2023/08/12 05:07:33;;;;;;;12.18;10.30;;;;;;;20.61;100.00;101180.75;6201596;23;20756;-69
2023/08/12 05:10:00;;;;;;;12.93;9.90;;;;;;;20.47;100.00;101167.72;6199060;23;20567;-67
2023/08/12 05:12:29;;;;;;;13.80;10.52;;;;;;;19.33;100.00;100981.13;6172797;23;20024;-68
2023/08/12 05:14:55;;;;;;;20.05;10.40;;;;;;;20.45;100.00;101173.19;6204717;23;20028;-69
2023/08/12 05:17:22;;;;;;;10.48;9.40;;;;;;;20.43;100.00;101169.81;6169576;23;20016;-68
2023/08/12 05:19:48;;;;;;;10.30;9.23;;;;;;;20.44;100.00;101163.50;6200895;23;20653;-69
2023/08/12 05:22:15;;;;;;;13.02;9.80;;;;;;;20.39;100.00;101165.72;6172465;23;20126;-69
2023/08/12 05:24:42;;;;;;;9.93;8.98;;;;;;;20.41;100.00;101165.59;6201142;23;20477;-69
2023/08/12 05:27:08;;;;;;;10.02;9.13;;;;;;;20.47;100.00;101162.41;6200524;23;20036;-68
2023/08/12 05:29:35;;;;;;;10.27;9.27;;;;;;;20.10;100.00;101096.25;6200901;23;20023;-69
2023/08/12 05:32:01;;;;;;;10.00;9.00;;;;;;;20.42;100.00;101146.78;6199199;23;20043;-69
2023/08/12 05:34:28;;;;;;;10.10;9.10;;;;;;;19.67;100.00;101050.16;6172182;23;20015;-69
2023/08/12 05:36:56;;;;;;;8.90;8.10;;;;;;;19.57;100.00;101016.47;6198973;23;20028;-69
2023/08/12 05:39:23;;;;;;;9.10;8.20;;;;;;;20.30;100.00;101155.84;6203180;23;20026;-70
2023/08/12 05:41:51;;;;;;;9.18;8.38;;;;;;;20.40;100.00;101183.38;6203069;23;20638;-69
2023/08/12 05:44:20;;;;;;;9.32;8.55;;;;;;;20.01;100.00;101123.72;6197466;23;20055;-69
2023/08/12 05:46:47;;;;;;;9.25;8.45;;;;;;;20.15;100.00;101139.38;6171274;23;20043;-69
2023/08/12 05:49:13;;;;;;;9.43;8.52;;;;;;;19.96;100.00;101113.44;6173030;23;20031;-70
2023/08/12 05:51:41;;;;;;;9.00;8.07;;;;;;;20.41;100.00;101186.94;6198876;23;20756;-69
2023/08/12 05:54:07;;;;;;;8.65;7.95;;;;;;;20.39;100.00;101191.53;6200521;23;20015;-69
2023/08/12 05:56:34;;;;;;;9.48;8.35;;;;;;;20.34;100.00;101189.25;6201365;23;20708;-69
2023/08/12 05:59:00;;;;;;;8.52;7.72;;;;;;;20.23;100.00;101178.69;6203039;23;20028;-69
2023/08/12 06:01:27;;;;;;;9.30;8.60;;;;;;;20.21;100.00;101181.47;6195806;23;20020;-69
2023/08/12 06:03:53;;;;;;;8.65;7.95;;;;;;;20.21;100.00;101183.31;6200755;23;20048;-70
2023/08/12 06:06:20;;;;;;;8.85;7.97;;;;;;;20.15;100.00;101191.81;6167021;23;20008;-69
2023/08/12 06:08:46;;;;;;;11.15;7.80;;;;;;;20.07;100.00;101187.13;6178265;23;20470;-69
2023/08/12 06:11:13;;;;;;;9.50;7.93;;;;;;;20.02;100.00;101192.00;6185893;23;20298;-69
2023/08/12 06:13:39;;;;;;;9.25;8.13;;;;;;;20.01;100.00;101187.66;6197756;23;20537;-69
2023/08/12 06:16:06;;;;;;;9.25;8.43;;;;;;;19.99;100.00;101194.94;6206282;23;20034;-69
2023/08/12 06:18:33;;;;;;;8.88;8.07;;;;;;;19.98;100.00;101195.91;6196703;23;20077;-69
2023/08/12 06:20:59;;;;;;;8.98;7.80;;;;;;;20.02;100.00;101194.66;6200792;23;20091;-66
2023/08/12 06:23:26;;;;;;;8.93;8.13;;;;;;;19.92;100.00;101189.25;6157550;23;20032;-68
2023/08/12 06:25:53;;;;;;;8.70;7.90;;;;;;;19.50;100.00;101142.09;6204808;23;20027;-69
2023/08/12 06:28:19;;;;;;;10.20;8.50;;;;;;;19.87;100.00;101199.47;6171785;23;20017;-69
2023/08/12 06:30:48;;;;;;;9.55;8.60;;;;;;;19.37;100.00;101122.78;6200724;23;20087;-68
2023/08/12 06:33:15;;;;;;;8.90;8.15;;;;;;;19.83;100.00;101188.22;6171512;23;20056;-68
2023/08/12 06:35:41;;;;;;;9.95;9.05;;;;;;;19.84;100.00;101189.06;6174499;23;20040;-68
2023/08/12 06:38:09;;;;;;;9.32;8.55;;;;;;;19.84;100.00;101197.88;6198705;23;20059;-69
2023/08/12 06:40:38;;;;;;;9.40;8.60;;;;;;;19.61;100.00;101159.84;6201648;23;20031;-67
2023/08/12 06:43:04;;;;;;;10.15;9.15;;;;;;;19.97;100.00;101194.22;6197122;23;20012;-69
2023/08/12 06:45:31;;;;;;;9.40;8.45;;;;;;;20.07;100.00;101169.31;6175760;23;20105;-68
2023/08/12 06:47:57;;;;;;;9.55;8.65;;;;;;;20.18;100.00;101183.56;6192497;23;20049;-68
2023/08/12 06:50:24;;;;;;;9.02;8.27;;;;;;;20.22;100.00;101153.00;6202842;23;20023;-68
2023/08/12 06:52:50;;;;;;;9.52;8.65;;;;;;;20.31;100.00;101115.72;6204135;23;20034;-67
2023/08/12 06:55:17;;;;;;;10.15;8.93;;;;;;;20.48;100.00;101095.59;6200488;23;20179;-68
2023/08/12 06:57:43;;;;;;;9.32;8.48;;;;;;;19.92;100.00;100977.03;6194939;23;20684;-68
2023/08/12 07:00:10;;;;;;;12.52;9.90;;;;;;;21.19;100.00;101099.13;6193793;23;20030;-68
2023/08/12 07:02:37;;;;;;;9.40;8.50;;;;;;;21.22;100.00;101099.72;6199231;23;20099;-68
2023/08/12 07:05:04;;;;;;;12.07;11.10;;;;;;;21.46;100.00;101103.81;6186965;23;20020;-68
2023/08/12 07:07:30;;;;;;;9.55;8.65;;;;;;;20.67;100.00;100947.34;6168581;23;20043;-68
2023/08/12 07:09:57;;;;;;;9.68;8.75;;;;;;;21.25;100.00;101037.22;6200705;23;20028;-68
2023/08/12 07:12:23;;;;;;;9.55;8.65;;;;;;;21.38;100.00;101036.91;6196752;23;20653;-68
2023/08/12 07:14:50;;;;;;;8.48;7.68;;;;;;;21.47;100.00;101036.94;6198987;23;20026;-68
2023/08/12 07:17:16;;;;;;;8.18;7.47;;;;;;;21.47;100.00;101044.94;6199580;23;20024;-68
2023/08/12 07:19:43;;;;;;;8.65;7.80;;;;;;;21.67;100.00;101064.47;6203038;23;20756;-68
2023/08/12 07:22:09;;;;;;;7.95;7.35;;;;;;;21.60;100.00;101039.28;6201055;23;20078;-68
2023/08/12 07:24:36;;;;;;;8.13;7.50;;;;;;;21.98;100.00;101074.09;6198868;23;20031;-69
2023/08/12 07:27:03;;;;;;;7.50;6.97;;;;;;;21.61;100.00;101000.06;6197957;23;20028;-68
2023/08/12 07:29:33;;;;;;;7.80;7.20;;;;;;;22.08;100.00;101059.69;6196924;23;20019;-68
2023/08/12 07:31:59;;;;;;;8.95;7.50;;;;;;;22.08;100.00;101030.28;6200994;23;20031;-69
2023/08/12 07:34:26;;;;;;;9.00;8.05;;;;;;;22.06;100.00;101015.41;6174635;23;20031;-71
2023/08/12 07:36:56;;;;;;;8.30;7.50;;;;;;;21.97;100.00;101003.75;6197084;23;20031;-69
2023/08/12 07:39:23;;;;;;;7.85;7.20;;;;;;;21.97;100.00;100998.41;6145693;23;20087;-69
2023/08/12 07:41:49;;;;;;;8.88;8.07;;;;;;;21.69;100.00;100941.44;6197664;23;20118;-68
2023/08/12 07:44:15;;;;;;;8.27;7.57;;;;;;;22.01;100.00;101020.31;6176219;23;20017;-69
2023/08/12 07:46:42;;;;;;;7.80;7.25;;;;;;;21.90;100.00;101008.84;6174717;23;20039;-69
2023/08/12 07:49:08;;;;;;;7.70;7.00;;;;;;;20.94;100.00;100874.59;6171389;23;20406;-69
2023/08/12 07:51:35;;;;;;;8.25;6.93;;;;;;;21.94;100.00;101025.44;6196596;23;20773;-68
2023/08/12 07:54:01;;;;;;;7.63;7.03;;;;;;;21.96;100.00;101033.31;6202180;23;20022;-68
2023/08/12 07:56:28;;;;;;;7.90;7.20;;;;;;;21.90;100.00;101029.38;6199757;23;20103;-68
2023/08/12 07:58:54;;;;;;;7.00;6.50;;;;;;;21.96;100.00;101009.25;6201382;23;20462;-68
2023/08/12 08:01:21;;;;;;;8.77;8.10;;;;;;;22.04;100.00;101009.34;6197688;23;20525;-69
2023/08/12 08:03:50;;;;;;;7.15;6.55;;;;;;;22.16;100.00;100999.31;6200581;23;20077;-68
2023/08/12 08:06:16;;;;;;;7.45;6.85;;;;;;;22.22;100.00;100991.53;6201836;23;20023;-69
2023/08/12 08:08:45;;;;;;;6.88;6.38;;;;;;;22.16;100.00;100976.09;6201902;23;20024;-68
2023/08/12 08:11:11;;;;;;;6.78;6.28;;;;;;;22.22;100.00;100980.84;6197312;23;20094;-68
2023/08/12 08:13:38;;;;;;;6.88;6.38;;;;;;;22.28;100.00;100972.25;6174088;23;21096;-68
2023/08/12 08:16:04;;;;;;;6.80;6.30;;;;;;;21.92;100.00;100872.41;6179917;23;20024;-68
2023/08/12 08:18:31;;;;;;;7.68;6.63;;;;;;;22.92;100.00;100960.69;6171490;23;20715;-69
2023/08/12 08:20:57;;;;;;;6.45;6.05;;;;;;;23.26;100.00;100921.47;6196026;23;20065;-68
2023/08/12 08:23:30;;;;;;;7.20;6.70;;;;;;;23.35;100.00;100900.09;6197896;23;20521;-68
2023/08/12 08:25:56;;;;;;;6.30;5.90;;;;;;;23.72;100.00;100904.31;6172525;23;20012;-69
2023/08/12 08:28:23;;;;;;;6.53;6.13;;;;;;;23.99;100.00;100887.19;6170250;23;20024;-67
2023/08/12 08:30:49;;;;;;;7.18;6.65;;;;;;;23.86;100.00;100853.66;6201775;23;20050;-69
2023/08/12 08:33:16;;;;;;;7.65;7.05;;;;;;;23.50;100.00;100826.19;6177310;23;20080;-69
2023/08/12 08:35:42;;;;;;;6.47;6.07;;;;;;;23.35;100.00;100847.38;6195328;23;20030;-68
2023/08/12 08:38:09;;;;;;;6.65;6.15;;;;;;;23.30;100.00;100841.69;6189688;23;20123;-69
2023/08/12 08:40:36;;;;;;;7.18;6.65;;;;;;;23.18;100.00;100859.84;6199418;23;20030;-71
2023/08/12 08:43:06;;;;;;;7.32;6.80;;;;;;;23.06;100.00;100842.38;6199629;22;20016;-69
2023/08/12 08:45:35;;;;;;;6.78;6.38;;;;;;;23.11;100.00;100874.84;6199971;23;20288;-71
2023/08/12 08:48:02;;;;;;;6.65;6.15;;;;;;;22.96;100.00;100912.03;6202422;22;20528;-70
2023/08/12 08:50:33;;;;;;;6.93;6.30;;;;;;;22.86;100.00;100935.38;6198768;23;20694;-71
2023/08/12 08:53:01;;;;;;;6.30;5.90;;;;;;;22.74;100.00;100936.63;6193365;23;20016;-67
2023/08/12 08:55:27;;;;;;;6.70;6.30;;;;;;;22.81;100.00;100943.00;6204193;23;20008;-69
2023/08/12 08:57:56;;;;;;;7.00;6.35;;;;;;;22.47;100.00;100911.59;6199301;23;20510;-69
2023/08/12 09:00:28;;;;;;;7.75;6.35;;;;;;;21.89;100.00;100838.00;6199582;23;20080;-70
2023/08/12 09:02:57;;;;;;;6.55;6.13;;;;;;;22.27;100.00;100862.78;6174916;23;20030;-70
2023/08/12 09:05:25;;;;;;;6.40;6.05;;;;;;;22.88;100.00;100960.16;6204213;23;20018;-71
2023/08/12 09:07:53;;;;;;;6.15;5.80;;;;;;;22.98;100.00;100986.84;6196686;23;20036;-71
2023/08/12 09:10:21;;;;;;;6.18;5.78;;;;;;;22.86;100.00;100920.16;6177243;23;20043;-68
2023/08/12 09:12:47;;;;;;;6.45;5.88;;;;;;;23.30;100.00;100965.69;6199614;23;20026;-69
2023/08/12 09:15:16;;;;;;;6.00;5.68;;;;;;;23.60;100.00;100976.94;6170094;23;20048;-68
2023/08/12 09:17:42;;;;;;;6.60;6.20;;;;;;;23.84;100.00;100957.50;6175653;23;20052;-68
2023/08/12 09:20:11;;;;;;;6.22;5.85;;;;;;;24.21;100.00;100961.66;6173868;23;20027;-68
2023/08/12 09:22:40;;;;;;;6.88;6.43;;;;;;;23.53;100.00;100779.47;6199784;23;20077;-70
2023/08/12 09:25:10;;;;;;;6.20;5.90;;;;;;;24.71;100.00;100917.00;6170271;23;20028;-69
2023/08/12 09:27:38;;;;;;;6.50;6.10;;;;;;;25.05;100.00;100889.97;6174126;23;20024;-68
2023/08/12 09:30:07;;;;;;;7.32;6.18;;;;;;;25.14;100.00;100826.34;6203328;23;20631;-69
2023/08/12 09:32:34;;;;;;;6.70;6.30;;;;;;;25.22;99.16;100794.13;6141849;23;20020;-69
2023/08/12 09:35:03;;;;;;;6.68;6.22;;;;;;;25.26;98.52;100792.75;6199404;23;20079;-69
2023/08/12 09:37:29;;;;;;;6.60;6.20;;;;;;;25.02;98.60;100796.34;6172308;23;20023;-69
2023/08/12 09:39:56;;;;;;;6.30;5.90;;;;;;;24.49;100.00;100811.16;6177402;23;20025;-68
2023/08/12 09:42:23;;;;;;;6.05;5.75;;;;;;;24.40;100.00;100834.47;6172745;23;20379;-67
2023/08/12 09:44:49;;;;;;;6.75;6.15;;;;;;;24.47;100.00;100864.97;6187610;23;20020;-67
2023/08/12 09:47:16;;;;;;;6.32;5.93;;;;;;;24.28;100.00;100809.81;6175570;23;20032;-68
2023/08/12 09:49:42;;;;;;;6.40;6.00;;;;;;;24.26;100.00;100811.00;6200293;23;20406;-68
2023/08/12 09:52:09;;;;;;;6.78;6.15;;;;;;;24.40;100.00;100790.72;6172060;23;20017;-67
2023/08/12 09:54:36;;;;;;;6.63;6.07;;;;;;;24.45;100.00;100793.72;6200110;23;20515;-67
2023/08/12 09:57:06;;;;;;;6.07;5.78;;;;;;;24.78;100.00;100821.41;6146828;23;20431;-67
2023/08/12 09:59:35;;;;;;;6.20;5.80;;;;;;;24.21;100.00;100739.06;6203531;23;20032;-68
2023/08/12 10:02:07;;;;;;;5.80;5.50;;;;;;;24.29;98.00;100717.63;6201954;23;20518;-70
2023/08/12 10:04:44;;;;;;;5.90;5.60;;;;;;;24.08;98.87;100728.03;6201032;23;20588;-68
2023/08/12 10:07:14;;;;;;;5.95;5.60;;;;;;;24.36;97.86;100743.78;6204331;23;20039;-69
2023/08/12 10:09:41;;;;;;;6.10;5.80;;;;;;;24.33;98.48;100761.03;6204066;23;20516;-69
2023/08/12 10:12:09;;;;;;;5.60;5.30;;;;;;;23.83;100.00;100716.44;6202194;23;20105;-67
2023/08/12 10:14:36;;;;;;;5.88;5.57;;;;;;;23.80;100.00;100711.44;6201257;23;20398;-68
2023/08/12 10:17:04;;;;;;;5.80;5.50;;;;;;;24.29;99.29;100763.22;6200308;23;20095;-68
2023/08/12 10:19:32;;;;;;;5.88;5.57;;;;;;;24.29;98.63;100752.50;6202893;23;20016;-68
2023/08/12 10:22:01;;;;;;;5.97;5.57;;;;;;;24.03;100.00;100778.63;6199576;23;20012;-66
2023/08/12 10:24:33;;;;;;;5.90;5.60;;;;;;;23.91;100.00;100764.69;6203823;23;20056;-68
2023/08/12 10:27:01;;;;;;;5.68;5.38;;;;;;;23.88;100.00;100781.94;6200109;23;20047;-67
2023/08/12 10:29:30;;;;;;;5.90;5.60;;;;;;;23.96;100.00;100774.94;6175836;23;20517;-68
2023/08/12 10:31:57;;;;;;;5.70;5.40;;;;;;;24.24;99.33;100760.19;6203277;23;20022;-68
2023/08/12 10:34:24;;;;;;;6.18;5.78;;;;;;;24.15;98.65;100718.28;6194793;23;20073;-68
2023/08/12 10:36:56;;;;;;;5.90;5.60;;;;;;;24.45;95.54;100719.44;6171563;23;20025;-67
2023/08/12 10:39:31;;;;;;;6.00;5.70;;;;;;;24.51;96.57;100742.09;6196582;23;20028;-69
2023/08/12 10:41:59;;;;;;;8.65;7.93;;;;;;;24.34;97.63;100733.22;6184428;23;20021;-68
2023/08/12 10:44:38;;;;;;;6.05;5.65;;;;;;;24.36;95.21;100711.59;6196003;23;20750;-68
2023/08/12 10:47:12;;;;;;;6.20;5.90;;;;;;;23.98;96.04;100697.88;6168503;23;20091;-67
2023/08/12 10:49:43;;;;;;;5.70;5.40;;;;;;;23.52;98.84;100709.00;6200909;22;20063;-68
2023/08/12 10:52:29;;;;;;;5.78;5.47;;;;;;;23.62;98.63;100732.97;6200533;23;20024;-68
2023/08/12 10:55:36;;;;;;;5.70;5.40;;;;;;;23.36;100.00;100766.03;6194259;23;20634;-67
2023/08/12 10:58:08;;;;;;;5.82;5.53;;;;;;;23.16;100.00;100796.75;6032505;23;20739;-67
2023/08/12 11:00:35;;;;;;;5.70;5.40;;;;;;;23.01;100.00;100845.50;6062319;23;20105;-68
2023/08/12 11:03:06;;;;;;;5.75;5.40;;;;;;;22.56;100.00;100837.66;6103338;23;20019;-65
2023/08/12 11:05:38;;;;;;;5.80;5.50;;;;;;;22.52;100.00;100911.16;6171944;23;20044;-67
2023/08/12 11:08:05;;;;;;;5.95;5.65;;;;;;;22.43;100.00;100921.78;6193474;23;20029;-68
2023/08/12 11:10:34;;;;;;;5.80;5.50;;;;;;;22.35;100.00;100942.25;6180677;23;20017;-68
2023/08/12 11:13:02;;;;;;;5.57;5.28;;;;;;;22.31;100.00;100963.09;6199576;23;20583;-68
2023/08/12 11:15:46;;;;;;;5.90;5.60;;;;;;;21.91;100.00;100905.50;6196467;23;20028;-69